Time;durP1;ratioP1;P1;durP2;ratioP2;P2;SDS_P1;SDS_P2;PMS_P1;PMS_P2;Temp;Humidity;BMP_temperature;BMP_pressure;BME280_temperature;BME280_humidity;BME280_pressure;Samples;Min_cycle;Max_cycle;Signal;HPM_P1;HPM_P2
2021/07/29 00:00:54;;;;;;;7.43;3.60;;;17.20;99.90;;;;;;5108641;28;20822;-76
2021/07/29 00:03:21;;;;;;;3.63;3.30;;;17.20;99.90;;;;;;5109258;28;20489;-76
2021/07/29 00:05:50;;;;;;;4.10;3.57;;;17.20;99.90;;;;;;5113040;28;20440;-76
2021/07/29 00:08:18;;;;;;;5.83;4.00;;;17.10;99.90;;;;;;5095396;28;20844;-75
2021/07/29 00:10:46;;;;;;;4.33;3.80;;;17.20;99.90;;;;;;5107933;27;20432;-76
2021/07/29 00:13:13;;;;;;;4.27;3.50;;;17.10;99.90;;;;;;5109785;28;20426;-77
2021/07/29 00:15:40;;;;;;;3.40;3.00;;;17.10;99.90;;;;;;5110902;28;20681;-77
2021/07/29 00:20:49;;;;;;;5.43;3.83;;;17.10;99.90;;;;;;5104389;28;20464;-76
2021/07/29 00:23:15;;;;;;;4.30;3.43;;;17.00;99.90;;;;;;5113797;28;20471;-77
2021/07/29 00:25:42;;;;;;;3.90;3.60;;;17.00;99.90;;;;;;5106988;28;20408;-76
2021/07/29 00:28:09;;;;;;;3.53;3.23;;;17.00;99.90;;;;;;5109163;28;20419;-76
2021/07/29 00:30:36;;;;;;;3.77;3.37;;;17.00;99.90;;;;;;5112339;28;20797;-76
2021/07/29 00:33:03;;;;;;;3.23;2.93;;;17.00;99.90;;;;;;5110486;28;20461;-76
2021/07/29 00:35:30;;;;;;;5.77;3.80;;;16.90;99.90;;;;;;5112300;28;20462;-76
2021/07/29 00:38:02;;;;;;;3.43;3.13;;;16.90;99.90;;;;;;5110472;28;20457;-76
2021/07/29 00:40:29;;;;;;;3.50;3.20;;;16.90;99.90;;;;;;5106456;28;20853;-76
2021/07/29 00:42:57;;;;;;;4.67;3.60;;;16.90;99.90;;;;;;5110345;28;20438;-76
2021/07/29 00:45:24;;;;;;;3.80;3.40;;;16.90;99.90;;;;;;5110558;28;20541;-76
2021/07/29 00:47:51;;;;;;;4.10;3.70;;;16.90;99.90;;;;;;5094016;28;20417;-77
2021/07/29 00:50:19;;;;;;;4.80;3.53;;;16.90;99.90;;;;;;5110024;28;20795;-77
2021/07/29 00:52:48;;;;;;;8.53;4.23;;;16.90;99.90;;;;;;5107086;28;20444;-76
2021/07/29 00:55:18;;;;;;;5.43;3.87;;;16.90;99.90;;;;;;5108411;28;20985;-77
2021/07/29 00:57:45;;;;;;;4.33;3.80;;;16.90;99.90;;;;;;5094442;28;20418;-76
2021/07/29 01:00:13;;;;;;;5.33;4.07;;;16.90;99.90;;;;;;5108010;28;20419;-76
2021/07/29 01:02:40;;;;;;;4.23;3.83;;;16.80;99.90;;;;;;5109181;28;20665;-75
2021/07/29 01:05:09;;;;;;;6.47;4.60;;;16.80;99.90;;;;;;5106687;28;20441;-76
2021/07/29 01:07:36;;;;;;;6.43;4.00;;;16.80;99.90;;;;;;5106046;28;20776;-76
2021/07/29 01:10:06;;;;;;;4.90;3.90;;;16.80;99.90;;;;;;5092558;28;20421;-76
2021/07/29 01:12:35;;;;;;;4.70;3.90;;;16.80;99.90;;;;;;5099228;27;20477;-77
2021/07/29 01:15:02;;;;;;;4.00;3.60;;;16.80;99.90;;;;;;5132029;27;20772;-77
2021/07/29 01:17:31;;;;;;;4.47;4.07;;;16.80;99.90;;;;;;5107439;28;20469;-77
2021/07/29 01:19:59;;;;;;;5.50;3.83;;;16.70;99.90;;;;;;5111044;28;20437;-76
2021/07/29 01:22:32;;;;;;;5.60;4.13;;;16.70;99.90;;;;;;5107422;28;21098;-77
2021/07/29 01:24:59;;;;;;;5.30;3.80;;;16.70;99.90;;;;;;5108191;28;20431;-77
2021/07/29 01:29:51;;;;;;;4.93;4.13;;;16.60;99.90;;;;;;5118814;27;20420;-78
2021/07/29 01:32:18;;;;;;;6.93;3.97;;;16.60;99.90;;;;;;5126832;27;20213;-77
2021/07/29 01:34:45;;;;;;;4.97;4.00;;;16.50;99.90;;;;;;5105665;28;20417;-77
2021/07/29 01:37:12;;;;;;;6.60;4.60;;;16.50;99.90;;;;;;5108556;28;20482;-78
2021/07/29 01:39:40;;;;;;;4.70;4.20;;;16.50;99.90;;;;;;5111731;28;20428;-77
2021/07/29 01:42:07;;;;;;;3.93;3.63;;;16.40;99.90;;;;;;5110245;28;20446;-78
2021/07/29 01:44:34;;;;;;;5.30;3.97;;;16.40;99.90;;;;;;5110815;28;20798;-78
2021/07/29 01:47:01;;;;;;;4.50;4.07;;;16.40;99.90;;;;;;5107797;28;20430;-77
2021/07/29 01:49:28;;;;;;;4.50;4.10;;;16.30;99.90;;;;;;5106791;28;20405;-77
2021/07/29 01:51:55;;;;;;;5.97;4.30;;;16.30;99.90;;;;;;5108096;28;20470;-77
2021/07/29 01:54:21;;;;;;;3.73;3.43;;;16.30;99.90;;;;;;5111227;28;20946;-77
2021/07/29 01:56:50;;;;;;;3.73;3.43;;;16.20;99.90;;;;;;5109418;28;20481;-76
2021/07/29 01:59:17;;;;;;;4.30;3.03;;;16.20;99.90;;;;;;5108763;28;20459;-77
2021/07/29 02:01:44;;;;;;;7.63;4.30;;;16.10;99.90;;;;;;5108967;28;20442;-77
2021/07/29 02:04:11;;;;;;;6.03;4.13;;;16.10;99.90;;;;;;5108493;28;20500;-77
2021/07/29 02:06:41;;;;;;;6.67;4.10;;;16.10;99.90;;;;;;5108316;28;20443;-77
2021/07/29 02:09:08;;;;;;;4.97;4.10;;;16.00;99.90;;;;;;5110433;28;20799;-77
2021/07/29 02:11:37;;;;;;;4.23;3.83;;;16.00;99.90;;;;;;5109169;28;20470;-77
2021/07/29 02:14:05;;;;;;;7.40;4.50;;;16.00;99.90;;;;;;5113602;28;20458;-76
2021/07/29 02:16:32;;;;;;;5.90;4.37;;;16.00;99.90;;;;;;5111280;27;21006;-77
2021/07/29 02:18:58;;;;;;;4.73;4.27;;;16.00;99.90;;;;;;5112072;28;20935;-77
2021/07/29 02:21:25;;;;;;;4.77;4.13;;;15.90;99.90;;;;;;5113633;28;20445;-77
2021/07/29 02:23:52;;;;;;;5.07;3.93;;;15.90;99.90;;;;;;5114108;28;20450;-76
2021/07/29 02:26:19;;;;;;;5.30;4.20;;;15.90;99.90;;;;;;5115261;28;20964;-76
2021/07/29 02:28:46;;;;;;;4.50;4.10;;;15.80;99.90;;;;;;5114644;28;20454;-77
2021/07/29 02:31:15;;;;;;;5.30;4.50;;;15.90;99.90;;;;;;5117318;28;20433;-76
2021/07/29 02:33:41;;;;;;;5.70;4.50;;;15.90;99.90;;;;;;5114663;28;20806;-76
2021/07/29 02:36:08;;;;;;;7.87;4.90;;;15.90;99.90;;;;;;5117693;28;20824;-78
2021/07/29 02:41:01;;;;;;;5.33;4.27;;;15.90;99.90;;;;;;5110342;28;20430;-76
2021/07/29 02:43:28;;;;;;;7.33;4.70;;;15.90;99.90;;;;;;5113492;28;20307;-76
2021/07/29 02:45:55;;;;;;;5.50;5.00;;;15.90;99.90;;;;;;5112592;28;20433;-76
2021/07/29 02:48:23;;;;;;;4.93;4.30;;;15.80;99.90;;;;;;5114378;28;20902;-78
2021/07/29 02:50:54;;;;;;;6.07;5.47;;;15.80;99.90;;;;;;5113050;28;20468;-76
2021/07/29 02:53:21;;;;;;;6.20;5.23;;;15.80;99.90;;;;;;5092337;28;20472;-77
2021/07/29 02:55:48;;;;;;;5.00;4.57;;;15.80;99.90;;;;;;5121066;27;20795;-77
2021/07/29 02:58:15;;;;;;;6.53;4.77;;;15.80;99.90;;;;;;5134437;27;20862;-76
2021/07/29 03:00:42;;;;;;;7.50;5.80;;;15.70;99.90;;;;;;5124997;27;20973;-77
2021/07/29 03:03:09;;;;;;;6.20;5.60;;;15.70;99.90;;;;;;5112773;28;20445;-76
2021/07/29 03:05:37;;;;;;;6.00;5.07;;;15.60;99.90;;;;;;5111047;28;20423;-77
2021/07/29 03:08:05;;;;;;;5.70;5.17;;;15.60;99.90;;;;;;5109586;28;20779;-78
2021/07/29 03:10:32;;;;;;;5.30;4.80;;;15.60;99.90;;;;;;5112656;28;20450;-77
2021/07/29 03:13:01;;;;;;;5.87;5.27;;;15.60;99.90;;;;;;5111746;28;20470;-77
2021/07/29 03:15:30;;;;;;;8.00;5.03;;;15.60;99.90;;;;;;5113465;28;20450;-77
2021/07/29 03:17:57;;;;;;;5.43;4.93;;;15.60;99.90;;;;;;5110653;28;20480;-76
2021/07/29 03:20:24;;;;;;;6.90;5.40;;;15.50;99.90;;;;;;5109791;28;20408;-77
2021/07/29 03:22:52;;;;;;;5.17;4.67;;;15.50;99.90;;;;;;5110020;28;20672;-77
2021/07/29 03:25:19;;;;;;;5.00;4.47;;;15.50;99.90;;;;;;5095824;28;20449;-78
2021/07/29 03:27:46;;;;;;;4.90;4.50;;;15.50;99.90;;;;;;5112947;28;20438;-76
2021/07/29 03:30:14;;;;;;;6.50;4.33;;;15.50;99.90;;;;;;5113275;28;20442;-76
2021/07/29 03:32:41;;;;;;;5.13;4.40;;;15.50;99.90;;;;;;5115998;28;20455;-77
2021/07/29 03:35:08;;;;;;;4.87;4.37;;;15.40;99.90;;;;;;5114218;28;20803;-77
2021/07/29 03:37:36;;;;;;;5.03;4.63;;;15.40;99.90;;;;;;5097657;28;20511;-76
2021/07/29 03:40:05;;;;;;;5.00;4.13;;;15.40;99.90;;;;;;5112877;27;20465;-76
2021/07/29 03:42:32;;;;;;;5.53;5.00;;;15.40;99.90;;;;;;5109300;28;20462;-77
2021/07/29 03:45:00;;;;;;;5.53;4.97;;;15.40;99.90;;;;;;5109842;28;20449;-75
2021/07/29 03:47:27;;;;;;;6.80;5.10;;;15.40;99.90;;;;;;5113528;28;20450;-76
2021/07/29 03:49:54;;;;;;;8.33;5.23;;;15.30;99.90;;;;;;5113410;28;20434;-76
2021/07/29 03:52:24;;;;;;;6.00;4.70;;;15.30;99.90;;;;;;5111941;28;20466;-76
2021/07/29 03:54:52;;;;;;;5.90;4.80;;;15.30;99.90;;;;;;5115911;28;20437;-76
2021/07/29 03:57:23;;;;;;;6.20;5.50;;;15.30;99.90;;;;;;5113335;28;20510;-76
2021/07/29 03:59:50;;;;;;;5.33;4.50;;;15.30;99.90;;;;;;5114014;28;20444;-76
2021/07/29 04:02:17;;;;;;;6.70;5.10;;;15.30;99.90;;;;;;5125274;27;20454;-77
2021/07/29 04:04:44;;;;;;;5.70;5.20;;;15.30;99.90;;;;;;5108929;28;20410;-76
2021/07/29 04:07:11;;;;;;;7.33;5.60;;;15.30;99.90;;;;;;5108396;28;20463;-76
2021/07/29 04:09:38;;;;;;;5.77;4.63;;;15.30;99.90;;;;;;5111983;28;20446;-76
2021/07/29 04:12:05;;;;;;;4.83;4.37;;;15.30;99.90;;;;;;5108960;28;20974;-76
2021/07/29 04:14:34;;;;;;;4.83;4.33;;;15.30;99.90;;;;;;5091708;28;20461;-75
2021/07/29 04:17:01;;;;;;;7.03;4.90;;;15.30;99.90;;;;;;5112507;28;20481;-75
2021/07/29 04:19:32;;;;;;;5.43;4.90;;;15.30;99.90;;;;;;5106503;28;20542;-76
2021/07/29 04:21:59;;;;;;;7.23;5.00;;;15.30;99.90;;;;;;5111611;28;21075;-75
2021/07/29 04:24:28;;;;;;;7.10;4.90;;;15.30;99.90;;;;;;5112750;28;20491;-75
2021/07/29 04:26:55;;;;;;;8.27;4.77;;;15.30;99.90;;;;;;5110949;28;20477;-76
2021/07/29 04:29:22;;;;;;;7.10;4.00;;;15.30;99.90;;;;;;5111364;28;20461;-76
2021/07/29 04:31:50;;;;;;;4.67;4.17;;;15.30;99.90;;;;;;5111628;28;20485;-76
2021/07/29 04:34:17;;;;;;;5.30;4.80;;;15.30;99.90;;;;;;5114995;28;20427;-76
2021/07/29 04:36:45;;;;;;;5.10;4.60;;;15.40;99.90;;;;;;5112376;28;20457;-76
2021/07/29 04:39:13;;;;;;;7.00;4.80;;;15.40;99.90;;;;;;5110515;28;20454;-76
2021/07/29 04:41:41;;;;;;;5.10;4.60;;;15.40;99.90;;;;;;5105492;28;20544;-76
2021/07/29 04:44:08;;;;;;;5.40;4.30;;;15.40;99.90;;;;;;5106325;28;20458;-75
2021/07/29 04:46:36;;;;;;;5.93;4.30;;;15.40;99.90;;;;;;5128301;27;21045;-75
2021/07/29 04:49:05;;;;;;;5.50;4.37;;;15.40;99.90;;;;;;5130653;27;20511;-75
2021/07/29 04:51:33;;;;;;;5.37;4.60;;;15.50;99.90;;;;;;5109713;28;20893;-75
2021/07/29 04:54:00;;;;;;;5.07;4.57;;;15.50;99.90;;;;;;5110050;28;20423;-75
2021/07/29 04:56:27;;;;;;;7.40;4.90;;;15.50;99.90;;;;;;5107010;28;20839;-75
2021/07/29 04:58:54;;;;;;;5.10;4.60;;;15.50;99.90;;;;;;5111140;28;20442;-76
2021/07/29 05:01:22;;;;;;;5.20;4.70;;;15.50;99.90;;;;;;5092360;28;20937;-75
2021/07/29 05:03:49;;;;;;;4.83;4.33;;;15.60;99.90;;;;;;5112188;28;20413;-75
2021/07/29 05:06:17;;;;;;;5.70;4.80;;;15.60;99.90;;;;;;5110800;28;20429;-76
2021/07/29 05:08:44;;;;;;;5.23;4.67;;;15.60;99.90;;;;;;5096292;28;20446;-75
2021/07/29 05:11:11;;;;;;;5.53;4.97;;;15.60;99.90;;;;;;5106580;28;20537;-75
2021/07/29 05:13:39;;;;;;;6.80;5.20;;;15.70;99.90;;;;;;5117480;27;20450;-76
2021/07/29 05:16:07;;;;;;;8.30;4.93;;;15.70;99.90;;;;;;5110995;27;20447;-75
2021/07/29 05:18:34;;;;;;;6.43;5.33;;;15.80;99.90;;;;;;5107709;28;20474;-75
2021/07/29 05:21:02;;;;;;;6.87;5.73;;;15.90;99.90;;;;;;5108607;28;20427;-76
2021/07/29 05:23:31;;;;;;;6.80;5.07;;;15.90;99.90;;;;;;5097971;28;20452;-75
2021/07/29 05:25:58;;;;;;;5.90;4.97;;;15.90;99.90;;;;;;5071655;28;20414;-76
2021/07/29 05:28:25;;;;;;;6.80;5.20;;;16.00;99.90;;;;;;5089329;28;20440;-76
2021/07/29 05:30:53;;;;;;;5.93;5.17;;;16.10;99.90;;;;;;5071821;28;20438;-76
2021/07/29 05:33:20;;;;;;;6.93;5.27;;;16.10;99.90;;;;;;5099461;28;20450;-75
2021/07/29 05:35:47;;;;;;;6.73;5.00;;;16.10;99.90;;;;;;5090413;28;20400;-76
2021/07/29 05:38:14;;;;;;;5.50;4.80;;;16.20;99.90;;;;;;5075958;28;20463;-75
2021/07/29 05:40:42;;;;;;;6.97;4.70;;;16.30;99.90;;;;;;5112148;28;20824;-77
2021/07/29 05:43:09;;;;;;;6.00;4.37;;;16.30;99.90;;;;;;5110177;28;20437;-77
2021/07/29 05:45:36;;;;;;;4.30;3.90;;;16.40;99.90;;;;;;5105757;28;20908;-76
2021/07/29 05:48:03;;;;;;;5.60;4.00;;;16.50;99.90;;;;;;5095321;28;20412;-78
2021/07/29 05:50:30;;;;;;;5.50;3.30;;;16.60;99.90;;;;;;5105547;28;20426;-78
2021/07/29 05:52:56;;;;;;;4.90;3.40;;;16.70;99.90;;;;;;5095213;28;20472;-76
2021/07/29 05:55:23;;;;;;;3.70;3.20;;;16.80;99.90;;;;;;5102403;27;20451;-77
2021/07/29 05:57:51;;;;;;;6.40;3.33;;;16.90;99.90;;;;;;5138409;27;20461;-77
2021/07/29 06:00:19;;;;;;;4.30;2.87;;;17.00;99.90;;;;;;5129755;27;20412;-78
2021/07/29 06:02:46;;;;;;;3.47;3.00;;;17.10;99.90;;;;;;5115793;28;20446;-77
2021/07/29 06:05:13;;;;;;;5.10;3.17;;;17.10;99.90;;;;;;5116213;28;20398;-78
2021/07/29 06:07:40;;;;;;;6.63;3.13;;;17.20;99.90;;;;;;5109976;27;20432;-77
2021/07/29 06:10:07;;;;;;;8.43;2.90;;;17.30;99.90;;;;;;5111218;28;20446;-78
2021/07/29 06:12:34;;;;;;;5.33;2.57;;;17.50;99.90;;;;;;5110882;28;20459;-77
2021/07/29 06:15:03;;;;;;;6.10;2.87;;;17.60;99.90;;;;;;5093500;28;20434;-76
2021/07/29 06:17:32;;;;;;;4.63;2.63;;;17.70;99.90;;;;;;5121245;27;20478;-77
2021/07/29 06:20:04;;;;;;;4.87;2.60;;;17.80;99.90;;;;;;5101799;28;20470;-78
2021/07/29 06:22:32;;;;;;;3.53;2.57;;;17.90;99.90;;;;;;5113179;28;20899;-88
2021/07/29 06:24:59;;;;;;;3.60;2.37;;;18.20;99.90;;;;;;5103871;28;20438;-78
2021/07/29 06:27:26;;;;;;;4.33;2.40;;;18.30;99.90;;;;;;5095381;28;20447;-77
2021/07/29 06:29:53;;;;;;;3.27;2.33;;;18.50;99.90;;;;;;5092674;28;20435;-77
2021/07/29 06:32:21;;;;;;;3.40;2.30;;;18.60;99.90;;;;;;5112328;28;20457;-77
2021/07/29 06:34:48;;;;;;;3.67;2.50;;;18.70;99.90;;;;;;5109708;28;20451;-77
2021/07/29 06:37:15;;;;;;;4.40;2.53;;;18.70;99.90;;;;;;5090140;28;20471;-76
2021/07/29 06:39:42;;;;;;;6.30;2.70;;;18.80;99.90;;;;;;5100460;28;20465;-75
2021/07/29 06:42:09;;;;;;;6.27;2.20;;;18.90;99.90;;;;;;5106236;28;21131;-75
2021/07/29 06:44:36;;;;;;;4.30;2.50;;;19.00;99.90;;;;;;5108798;28;20445;-76
2021/07/29 06:47:04;;;;;;;5.07;2.60;;;19.20;99.90;;;;;;5112963;28;20442;-77
2021/07/29 06:49:32;;;;;;;4.47;2.10;;;19.20;99.90;;;;;;5112441;28;20442;-76
2021/07/29 06:51:59;;;;;;;2.27;1.97;;;19.20;99.90;;;;;;5109091;28;20474;-76
2021/07/29 06:54:26;;;;;;;5.70;2.43;;;19.30;99.90;;;;;;5106931;28;20457;-76
2021/07/29 06:56:53;;;;;;;2.50;1.90;;;19.40;99.90;;;;;;5106206;28;20465;-76
2021/07/29 06:59:20;;;;;;;7.83;2.37;;;19.40;99.90;;;;;;5109899;28;20442;-77
2021/07/29 07:01:46;;;;;;;6.80;2.80;;;19.40;99.90;;;;;;5096906;28;20473;-79
2021/07/29 07:04:13;;;;;;;3.53;2.10;;;19.50;99.90;;;;;;5093652;28;20435;-75
2021/07/29 07:06:42;;;;;;;4.43;2.40;;;19.40;99.90;;;;;;5093571;28;20431;-75
2021/07/29 07:09:08;;;;;;;4.10;2.00;;;19.40;99.90;;;;;;5108976;28;20462;-76
2021/07/29 07:11:36;;;;;;;6.30;2.50;;;19.50;99.90;;;;;;5109370;28;20457;-77
2021/07/29 07:14:05;;;;;;;4.87;1.80;;;19.50;99.90;;;;;;5109341;28;20458;-77
2021/07/29 07:16:33;;;;;;;8.87;2.83;;;19.60;99.90;;;;;;5112331;28;20461;-74
2021/07/29 07:19:00;;;;;;;5.80;2.10;;;19.60;99.90;;;;;;5099582;28;20486;-77
2021/07/29 07:21:27;;;;;;;3.77;2.07;;;19.70;99.90;;;;;;5100824;28;20488;-77
2021/07/29 07:23:55;;;;;;;3.50;2.13;;;19.80;99.90;;;;;;5107835;27;20447;-78
2021/07/29 07:26:24;;;;;;;4.37;2.40;;;19.80;99.90;;;;;;5087221;28;20450;-78
2021/07/29 07:28:52;;;;;;;4.03;2.03;;;19.90;99.90;;;;;;5094336;28;20465;-78
2021/07/29 07:31:20;;;;;;;3.00;1.90;;;20.00;99.90;;;;;;5113572;28;20442;-77
2021/07/29 07:33:47;;;;;;;4.17;2.20;;;20.10;99.90;;;;;;5077211;28;20450;-77
2021/07/29 07:36:16;;;;;;;5.47;2.37;;;20.10;99.90;;;;;;5095631;28;20451;-77
2021/07/29 07:38:43;;;;;;;3.03;2.20;;;20.10;99.90;;;;;;5108688;28;20478;-76
2021/07/29 07:41:12;;;;;;;4.47;2.30;;;20.10;99.90;;;;;;5109928;28;20493;-76
2021/07/29 07:43:38;;;;;;;4.90;2.10;;;20.10;99.90;;;;;;5111157;28;20450;-77
2021/07/29 07:46:06;;;;;;;2.23;2.00;;;20.20;99.90;;;;;;5113238;28;20525;-77
2021/07/29 07:48:33;;;;;;;3.70;2.10;;;20.20;99.90;;;;;;5113613;28;20685;-77
2021/07/29 07:51:00;;;;;;;4.77;2.77;;;20.20;99.90;;;;;;5094645;28;20468;-77
2021/07/29 07:53:29;;;;;;;3.40;2.50;;;20.20;99.90;;;;;;5110651;28;20813;-76
2021/07/29 07:55:56;;;;;;;6.90;2.63;;;20.10;99.90;;;;;;5108438;28;20942;-76
2021/07/29 07:58:24;;;;;;;3.77;2.17;;;20.10;99.90;;;;;;5112607;28;20478;-77
2021/07/29 08:00:51;;;;;;;4.00;2.20;;;20.20;99.90;;;;;;5111231;28;20450;-79
2021/07/29 08:03:18;;;;;;;4.03;2.57;;;20.30;99.90;;;;;;5113755;28;20970;-77
2021/07/29 08:05:45;;;;;;;5.87;2.03;;;20.20;99.90;;;;;;5095299;28;20552;-76
2021/07/29 08:08:12;;;;;;;5.07;2.33;;;20.20;99.90;;;;;;5114251;28;20453;-77
2021/07/29 08:10:41;;;;;;;4.10;2.30;;;20.20;99.90;;;;;;5115343;28;20427;-76
2021/07/29 08:13:09;;;;;;;4.70;2.17;;;20.10;99.90;;;;;;5113485;28;20876;-77
2021/07/29 08:15:37;;;;;;;3.50;2.30;;;20.20;99.90;;;;;;5092524;28;21812;-77
2021/07/29 08:18:04;;;;;;;2.50;2.13;;;20.30;99.90;;;;;;5107570;28;20494;-79
2021/07/29 08:20:31;;;;;;;3.93;2.33;;;20.20;99.90;;;;;;5110488;28;20504;-77
2021/07/29 08:22:59;;;;;;;4.00;2.53;;;20.30;99.90;;;;;;5113014;28;20986;-77
2021/07/29 08:25:26;;;;;;;3.80;2.10;;;20.30;99.90;;;;;;5093464;28;20541;-77
2021/07/29 08:27:54;;;;;;;2.37;1.60;;;20.20;99.90;;;;;;5111605;28;20459;-79
2021/07/29 08:30:21;;;;;;;3.80;2.17;;;20.20;99.90;;;;;;5107044;27;20458;-77
2021/07/29 08:32:50;;;;;;;5.77;2.13;;;20.30;99.90;;;;;;5109138;28;20467;-78
2021/07/29 08:35:17;;;;;;;3.10;2.43;;;20.20;99.90;;;;;;5111499;28;20533;-77
2021/07/29 08:37:45;;;;;;;3.57;2.13;;;20.20;99.90;;;;;;5110625;28;20489;-76
2021/07/29 08:40:17;;;;;;;6.03;2.20;;;20.30;99.90;;;;;;5112773;28;20563;-76
2021/07/29 08:42:44;;;;;;;4.13;1.80;;;20.30;99.90;;;;;;5089627;27;20475;-77
2021/07/29 08:45:12;;;;;;;2.90;2.07;;;20.30;99.90;;;;;;5102040;28;20451;-78
2021/07/29 08:47:39;;;;;;;4.03;1.90;;;20.40;99.90;;;;;;5085337;28;20917;-76
2021/07/29 08:50:09;;;;;;;5.33;1.90;;;20.40;99.90;;;;;;5092398;28;20454;-76
2021/07/29 08:52:36;;;;;;;3.43;1.87;;;20.40;99.90;;;;;;5089790;28;20458;-78
2021/07/29 08:55:04;;;;;;;5.50;2.30;;;20.40;99.90;;;;;;5104826;28;20432;-77
2021/07/29 08:57:33;;;;;;;2.20;1.83;;;20.40;99.90;;;;;;5070927;28;20459;-76
2021/07/29 09:00:02;;;;;;;4.10;1.87;;;20.40;99.90;;;;;;5073673;28;20491;-76
2021/07/29 09:02:29;;;;;;;3.00;1.70;;;20.40;99.90;;;;;;5090156;28;20474;-76
2021/07/29 09:05:15;;;;;;;3.17;1.67;;;20.50;99.90;;;;;;5106677;28;21017;-76
2021/07/29 09:07:43;;;;;;;4.00;2.30;;;20.50;99.90;;;;;;5088135;28;20442;-77
2021/07/29 09:10:25;;;;;;;3.60;1.87;;;20.40;99.90;;;;;;5086040;28;20455;-78
2021/07/29 09:13:08;;;;;;;2.60;1.73;;;20.40;99.90;;;;;;5091315;28;20462;-76
2021/07/29 09:15:35;;;;;;;4.23;1.90;;;20.60;99.90;;;;;;5074476;28;20454;-78
2021/07/29 09:18:03;;;;;;;5.70;1.80;;;20.60;99.90;;;;;;5104954;28;20475;-76
2021/07/29 09:20:32;;;;;;;2.80;1.70;;;20.60;99.90;;;;;;5090203;28;20449;-77
2021/07/29 09:23:13;;;;;;;6.27;1.80;;;20.70;99.90;;;;;;5106163;28;20472;-76
2021/07/29 09:25:40;;;;;;;1.97;1.40;;;20.70;99.90;;;;;;5092398;28;20526;-77
2021/07/29 09:28:08;;;;;;;5.63;2.47;;;20.70;99.90;;;;;;5105458;28;20719;-76
2021/07/29 09:30:35;;;;;;;3.47;1.43;;;20.80;99.90;;;;;;5086578;28;20764;-76
2021/07/29 09:33:04;;;;;;;4.20;1.80;;;20.80;99.90;;;;;;5087351;28;20556;-77
2021/07/29 09:35:36;;;;;;;2.73;1.80;;;20.80;99.90;;;;;;5108107;28;20434;-77
2021/07/29 09:38:06;;;;;;;3.53;1.87;;;20.80;99.90;;;;;;5106971;28;20486;-77
2021/07/29 09:40:49;;;;;;;3.43;1.60;;;20.80;99.90;;;;;;5108761;28;20458;-76
2021/07/29 09:43:18;;;;;;;2.27;1.70;;;20.80;99.90;;;;;;5077526;28;20814;-76
2021/07/29 09:45:47;;;;;;;5.93;2.13;;;20.80;99.90;;;;;;5069931;28;20467;-76
2021/07/29 09:48:17;;;;;;;6.37;2.27;;;20.80;99.90;;;;;;5067736;28;20454;-78
2021/07/29 09:50:46;;;;;;;3.90;1.90;;;20.80;99.90;;;;;;5103273;28;20454;-78
2021/07/29 09:53:13;;;;;;;2.93;1.60;;;20.80;99.90;;;;;;5087721;28;21105;-76
2021/07/29 09:55:40;;;;;;;6.37;1.87;;;20.90;99.90;;;;;;5106115;28;20446;-77
2021/07/29 09:58:07;;;;;;;5.27;2.10;;;20.80;99.90;;;;;;5089124;28;20474;-76
2021/07/29 10:00:36;;;;;;;5.03;1.93;;;20.80;99.90;;;;;;5069179;28;20438;-76
2021/07/29 10:03:05;;;;;;;2.33;1.57;;;20.90;99.90;;;;;;5104245;28;20462;-77
2021/07/29 10:05:41;;;;;;;2.30;1.70;;;20.90;99.90;;;;;;5106555;28;20783;-75
2021/07/29 10:08:15;;;;;;;2.53;1.63;;;20.90;99.90;;;;;;5087048;28;20456;-76
2021/07/29 10:10:44;;;;;;;2.30;1.50;;;20.80;99.90;;;;;;5107526;28;20658;-75
2021/07/29 10:13:11;;;;;;;4.40;1.70;;;20.90;99.90;;;;;;5104533;28;20477;-76
2021/07/29 10:15:40;;;;;;;4.10;1.70;;;21.00;99.90;;;;;;5102833;28;20783;-78
2021/07/29 10:18:08;;;;;;;3.53;1.90;;;21.00;99.90;;;;;;5102710;28;20450;-76
2021/07/29 10:20:36;;;;;;;3.40;1.70;;;21.00;99.90;;;;;;5107689;28;20446;-77
2021/07/29 10:23:28;;;;;;;4.07;2.00;;;21.00;99.90;;;;;;5106889;28;20473;-76
2021/07/29 10:26:11;;;;;;;3.80;2.10;;;21.10;99.90;;;;;;5090281;28;20947;-76
2021/07/29 10:28:39;;;;;;;4.03;2.30;;;21.10;99.90;;;;;;5089407;28;20434;-76
2021/07/29 10:31:08;;;;;;;4.27;1.73;;;21.00;99.90;;;;;;5102900;28;20961;-77
2021/07/29 10:33:36;;;;;;;4.47;2.30;;;21.00;99.90;;;;;;5070797;28;20847;-78
2021/07/29 10:36:03;;;;;;;2.83;2.23;;;20.90;99.90;;;;;;5108247;28;20826;-78
2021/07/29 10:38:48;;;;;;;3.47;1.87;;;20.90;99.90;;;;;;5109127;28;20479;-78
2021/07/29 10:41:44;;;;;;;3.80;1.80;;;20.90;99.90;;;;;;5078360;28;21110;-77
2021/07/29 10:44:46;;;;;;;5.20;2.17;;;20.80;99.90;;;;;;5089565;27;20455;-76
2021/07/29 10:47:18;;;;;;;4.37;2.37;;;20.70;99.90;;;;;;5073360;28;20457;-76
2021/07/29 10:50:06;;;;;;;3.10;2.10;;;20.70;99.90;;;;;;5107534;28;20519;-76
2021/07/29 10:52:34;;;;;;;4.90;2.47;;;20.60;99.90;;;;;;5093146;28;20476;-77
2021/07/29 10:55:03;;;;;;;6.57;2.10;;;20.60;99.90;;;;;;5112105;28;20515;-76
2021/07/29 10:57:30;;;;;;;3.50;2.20;;;20.50;99.90;;;;;;5094282;28;20446;-76
2021/07/29 10:59:59;;;;;;;4.10;2.20;;;20.50;99.90;;;;;;5110862;28;20511;-76
2021/07/29 11:02:36;;;;;;;3.07;2.00;;;20.50;99.90;;;;;;5113281;28;20916;-77
2021/07/29 11:05:08;;;;;;;4.37;2.07;;;20.50;99.90;;;;;;5106061;28;20446;-76
2021/07/29 11:07:35;;;;;;;4.67;2.40;;;20.50;99.90;;;;;;5107400;28;20818;-77
2021/07/29 11:10:06;;;;;;;5.57;2.10;;;20.50;99.90;;;;;;5108835;28;20454;-77
2021/07/29 11:12:35;;;;;;;4.43;2.00;;;20.50;99.90;;;;;;5092901;28;20977;-77
2021/07/29 11:15:03;;;;;;;4.00;2.47;;;20.50;99.90;;;;;;5109386;28;20458;-77
2021/07/29 11:17:30;;;;;;;3.23;2.60;;;20.50;99.90;;;;;;5093912;28;20939;-77
2021/07/29 11:19:57;;;;;;;2.23;1.73;;;20.40;99.90;;;;;;5112866;28;20493;-77
2021/07/29 11:22:24;;;;;;;3.10;1.90;;;20.50;99.90;;;;;;5110024;28;20482;-78
2021/07/29 11:24:51;;;;;;;2.13;1.70;;;20.50;99.90;;;;;;5112265;28;20431;-77
2021/07/29 11:27:30;;;;;;;7.13;1.93;;;20.50;99.90;;;;;;5105632;28;20795;-78
2021/07/29 11:30:00;;;;;;;4.13;1.70;;;20.50;99.90;;;;;;5107420;28;20433;-76
2021/07/29 11:32:34;;;;;;;2.70;1.80;;;20.50;99.90;;;;;;5090997;28;20587;-77
2021/07/29 11:35:02;;;;;;;3.10;1.90;;;20.50;99.90;;;;;;5092079;28;20461;-77
2021/07/29 11:37:35;;;;;;;6.17;2.13;;;20.50;99.90;;;;;;5109612;28;20431;-77
2021/07/29 11:40:02;;;;;;;3.57;2.10;;;20.60;99.90;;;;;;5086516;28;20482;-77
2021/07/29 11:42:39;;;;;;;2.67;2.20;;;20.70;99.90;;;;;;5104138;28;20838;-76
2021/07/29 11:45:22;;;;;;;4.33;2.20;;;20.70;99.90;;;;;;5087207;28;20466;-77
2021/07/29 11:47:49;;;;;;;4.93;2.80;;;20.80;99.90;;;;;;5104906;27;20443;-76
2021/07/29 11:50:17;;;;;;;3.80;2.10;;;20.90;99.90;;;;;;5081443;28;21331;-78
2021/07/29 11:52:51;;;;;;;8.80;5.73;;;20.90;99.90;;;;;;5102758;28;20482;-77
2021/07/29 11:55:20;;;;;;;12.43;4.73;;;21.00;99.90;;;;;;5087577;28;20926;-76
2021/07/29 11:57:50;;;;;;;4.83;2.20;;;21.00;99.90;;;;;;5071193;28;20450;-76
2021/07/29 12:00:28;;;;;;;5.30;2.13;;;21.00;99.90;;;;;;5103388;27;20840;-76
2021/07/29 12:02:55;;;;;;;4.73;2.20;;;21.00;99.90;;;;;;5056256;28;20455;-77
2021/07/29 12:05:24;;;;;;;4.93;1.80;;;21.00;99.90;;;;;;5100642;28;20807;-76
2021/07/29 12:07:52;;;;;;;2.77;1.90;;;21.00;99.90;;;;;;5105076;28;20442;-76
2021/07/29 12:10:22;;;;;;;5.67;2.13;;;21.10;99.90;;;;;;5098673;27;20815;-76
2021/07/29 12:12:50;;;;;;;5.20;2.20;;;21.10;99.90;;;;;;5131919;27;20821;-76
2021/07/29 12:15:17;;;;;;;3.70;1.90;;;21.10;99.90;;;;;;5125280;27;20464;-76
2021/07/29 12:17:44;;;;;;;3.57;2.13;;;21.10;99.90;;;;;;5110833;28;20948;-76
2021/07/29 12:20:14;;;;;;;2.10;1.87;;;21.10;99.90;;;;;;5103439;28;20486;-76
2021/07/29 12:22:42;;;;;;;3.10;2.20;;;21.10;99.90;;;;;;5106531;28;20515;-76
2021/07/29 12:25:26;;;;;;;3.40;2.20;;;21.20;99.90;;;;;;5111142;28;20443;-76
2021/07/29 12:27:56;;;;;;;6.53;2.40;;;21.20;99.90;;;;;;5091667;28;20453;-75
2021/07/29 12:30:32;;;;;;;4.90;2.40;;;21.20;99.90;;;;;;5094746;28;20478;-76
2021/07/29 12:33:08;;;;;;;4.63;2.40;;;21.20;99.90;;;;;;5099680;27;20998;-76
2021/07/29 12:35:35;;;;;;;5.23;2.27;;;21.20;99.90;;;;;;5114171;27;20437;-76
2021/07/29 12:38:02;;;;;;;5.67;2.53;;;21.20;99.90;;;;;;5088599;28;20450;-76
2021/07/29 12:40:32;;;;;;;2.67;1.70;;;21.30;99.90;;;;;;5111407;28;20493;-77
2021/07/29 12:43:18;;;;;;;3.57;2.33;;;21.30;99.90;;;;;;5108730;28;20475;-77
2021/07/29 12:45:49;;;;;;;3.87;2.57;;;21.20;99.90;;;;;;5094733;27;20458;-77
2021/07/29 12:48:16;;;;;;;6.00;2.80;;;21.30;99.90;;;;;;5110996;27;20834;-77
2021/07/29 12:50:43;;;;;;;3.53;2.17;;;21.30;99.90;;;;;;5103285;28;20447;-76
2021/07/29 12:53:11;;;;;;;5.27;2.67;;;21.20;99.90;;;;;;5107976;28;20469;-76
2021/07/29 12:55:38;;;;;;;3.30;2.10;;;21.30;99.90;;;;;;5095551;27;20429;-76
2021/07/29 12:58:06;;;;;;;7.10;2.40;;;21.30;99.90;;;;;;5111561;27;20450;-76
2021/07/29 13:00:37;;;;;;;4.07;2.20;;;21.30;99.90;;;;;;5115323;27;20485;-76
2021/07/29 13:03:14;;;;;;;2.67;1.80;;;21.20;99.90;;;;;;5111368;27;20471;-76